createdAt,value
2022-12-03T00:00:42.624Z,-2.71
2022-12-03T00:02:44.540Z,-2.65
2022-12-03T00:04:46.378Z,-2.49
2022-12-03T00:06:48.338Z,-2.62
2022-12-03T00:08:50.061Z,-2.65
2022-12-03T00:10:53.041Z,-2.57
2022-12-03T00:12:54.725Z,-2.62
2022-12-03T00:15:02.393Z,-2.78
2022-12-03T00:17:04.442Z,-2.85
2022-12-03T00:19:06.205Z,-2.98
2022-12-03T00:21:07.962Z,-2.93
2022-12-03T00:23:09.864Z,-2.95
2022-12-03T00:25:11.713Z,-2.97
2022-12-03T00:27:13.549Z,-2.95
2022-12-03T00:29:15.695Z,-2.96
2022-12-03T00:31:17.832Z,-2.92
2022-12-03T00:33:20.777Z,-2.81
2022-12-03T00:35:22.562Z,-2.69
2022-12-03T00:37:24.362Z,-2.84
2022-12-03T00:39:26.193Z,-2.93
2022-12-03T00:41:28.177Z,-2.88
2022-12-03T00:43:29.956Z,-2.80
2022-12-03T00:45:31.832Z,-2.90
2022-12-03T00:47:34.331Z,-2.88
2022-12-03T00:49:36.181Z,-2.72
2022-12-03T00:51:37.916Z,-2.75
2022-12-03T00:53:39.745Z,-2.82
2022-12-03T00:55:41.646Z,-2.82
2022-12-03T00:57:43.608Z,-2.95
2022-12-03T00:59:45.537Z,-2.89
2022-12-03T01:01:47.529Z,-2.67
2022-12-03T01:03:49.309Z,-2.75
2022-12-03T01:05:51.353Z,-2.69
2022-12-03T01:07:53.340Z,-2.56
2022-12-03T01:09:55.156Z,-2.62
2022-12-03T01:11:56.971Z,-2.85
2022-12-03T01:13:58.867Z,-2.75
2022-12-03T01:16:00.640Z,-2.64
2022-12-03T01:18:02.580Z,-2.82
2022-12-03T01:20:08.574Z,-2.68
2022-12-03T01:22:10.296Z,-2.73
2022-12-03T01:24:12.400Z,-2.91
2022-12-03T01:26:14.166Z,-2.84
2022-12-03T01:28:15.924Z,-2.84
2022-12-03T01:30:17.920Z,-2.85
2022-12-03T01:32:19.954Z,-2.89
2022-12-03T01:34:21.782Z,-2.98
2022-12-03T01:36:23.683Z,-2.98
2022-12-03T01:38:25.464Z,-2.87
2022-12-03T01:40:27.169Z,-2.83
2022-12-03T01:42:35.117Z,-2.70
2022-12-03T01:44:39.603Z,-2.69
2022-12-03T01:46:42.509Z,-2.53
2022-12-03T01:48:45.346Z,-2.46
2022-12-03T01:50:47.351Z,-2.52
2022-12-03T01:52:49.959Z,-2.53
2022-12-03T01:54:56.010Z,-2.48
2022-12-03T01:56:58.980Z,-2.63
2022-12-03T01:59:00.765Z,-2.65
2022-12-03T02:01:10.270Z,-2.75
2022-12-03T02:03:17.268Z,-2.87
2022-12-03T02:05:26.227Z,-2.63
2022-12-03T02:07:33.770Z,-2.56
2022-12-03T02:09:35.712Z,-2.47
2022-12-03T02:11:49.615Z,-2.58
2022-12-03T02:13:53.149Z,-2.56
2022-12-03T02:16:02.432Z,-2.57
2022-12-03T02:18:04.362Z,-2.56
2022-12-03T02:20:08.434Z,-2.57
2022-12-03T02:22:34.782Z,-2.70
2022-12-03T02:25:15.237Z,-2.62
2022-12-03T02:27:17.484Z,-2.74
2022-12-03T02:29:19.304Z,-2.52
2022-12-03T02:31:21.332Z,-2.49
2022-12-03T02:33:23.145Z,-2.46
2022-12-03T02:35:27.817Z,-2.38
2022-12-03T02:37:34.186Z,-2.51
2022-12-03T02:39:38.604Z,-2.30
2022-12-03T02:41:40.516Z,-2.25
2022-12-03T02:43:42.212Z,-2.16
2022-12-03T02:45:46.930Z,-2.20
2022-12-03T02:47:54.349Z,-2.19
2022-12-03T02:49:56.911Z,-2.20
2022-12-03T02:51:58.927Z,-2.17
2022-12-03T02:54:01.258Z,-2.16
2022-12-03T02:56:03.815Z,-2.25
2022-12-03T02:58:05.794Z,-2.16
2022-12-03T03:00:10.578Z,-2.14
2022-12-03T03:02:14.262Z,-2.14
2022-12-03T03:04:16.487Z,-2.12
2022-12-03T03:06:19.991Z,-2.06
2022-12-03T03:08:21.560Z,-2.07
2022-12-03T03:10:23.859Z,-2.42
2022-12-03T03:12:26.097Z,-2.48
2022-12-03T03:14:27.871Z,-2.37
2022-12-03T03:16:29.778Z,-2.10
2022-12-03T03:18:32.855Z,-2.19
2022-12-03T03:20:35.526Z,-2.26
2022-12-03T03:22:40.656Z,-2.16
2022-12-03T03:24:42.664Z,-2.15
2022-12-03T03:26:44.654Z,-2.14
2022-12-03T03:28:49.355Z,-2.14
2022-12-03T03:30:51.440Z,-2.25
2022-12-03T03:32:53.340Z,-2.23
2022-12-03T03:34:56.326Z,-2.22
2022-12-03T03:36:58.497Z,-2.13
2022-12-03T03:39:00.417Z,-2.09
2022-12-03T03:41:05.957Z,-2.25
2022-12-03T03:43:07.881Z,-2.22
2022-12-03T03:45:09.889Z,-2.32
2022-12-03T03:47:12.370Z,-2.34
2022-12-03T03:49:14.298Z,-2.24
2022-12-03T03:51:17.622Z,-2.26
2022-12-03T03:53:20.818Z,-2.09
2022-12-03T03:55:23.049Z,-2.29
2022-12-03T03:57:24.839Z,-2.28
2022-12-03T03:59:26.774Z,-2.31
2022-12-03T04:01:30.085Z,-2.20
2022-12-03T04:03:31.863Z,-2.28
2022-12-03T04:05:33.740Z,-2.39
2022-12-03T04:07:35.538Z,-2.34
2022-12-03T04:09:37.362Z,-2.27
2022-12-03T04:11:39.121Z,-2.34
2022-12-03T04:13:41.012Z,-2.35
2022-12-03T04:15:42.739Z,-2.45
2022-12-03T04:17:44.547Z,-2.38
2022-12-03T04:19:46.528Z,-2.38
2022-12-03T04:21:48.238Z,-2.10
2022-12-03T04:23:50.146Z,-2.20
2022-12-03T04:25:52.139Z,-2.22
2022-12-03T04:27:54.226Z,-2.07
2022-12-03T04:29:56.184Z,-2.15
2022-12-03T04:31:58.109Z,-2.15
2022-12-03T04:33:59.793Z,-2.20
2022-12-03T04:36:01.689Z,-2.23
2022-12-03T04:38:03.651Z,-2.12
2022-12-03T04:40:06.170Z,-2.21
2022-12-03T04:42:08.184Z,-2.07
2022-12-03T04:44:10.023Z,-2.16
2022-12-03T04:46:11.739Z,-2.20
2022-12-03T04:48:13.620Z,-2.23
2022-12-03T04:50:15.677Z,-2.35
2022-12-03T04:52:19.409Z,-2.40
2022-12-03T04:54:21.167Z,-2.16
2022-12-03T04:56:22.995Z,-2.25
2022-12-03T04:58:24.781Z,-2.35
2022-12-03T05:00:26.621Z,-2.26
2022-12-03T05:02:28.625Z,-2.23
2022-12-03T05:04:30.546Z,-2.34
2022-12-03T05:06:32.803Z,-2.32
2022-12-03T05:08:34.735Z,-2.35
2022-12-03T05:10:36.432Z,-2.34
2022-12-03T05:12:38.473Z,-2.30
2022-12-03T05:14:40.277Z,-2.23
2022-12-03T05:16:42.038Z,-2.41
2022-12-03T05:18:44.024Z,-2.38
2022-12-03T05:20:52.975Z,-2.48
2022-12-03T05:22:55.093Z,-2.27
2022-12-03T05:24:57.049Z,-2.18
2022-12-03T05:26:58.937Z,-2.09
2022-12-03T05:29:00.659Z,-2.11
2022-12-03T05:31:02.726Z,-2.09
2022-12-03T05:33:04.698Z,-2.06
2022-12-03T05:35:06.642Z,-1.99
2022-12-03T05:37:08.599Z,-1.89
2022-12-03T05:39:10.587Z,-1.94
2022-12-03T05:41:12.265Z,-2.08
2022-12-03T05:43:14.146Z,-2.13
2022-12-03T05:45:16.051Z,-2.16
2022-12-03T05:47:17.728Z,-2.18
2022-12-03T05:49:19.593Z,-2.15
2022-12-03T05:51:21.381Z,-2.06
2022-12-03T05:53:23.123Z,-1.99
2022-12-03T05:55:25.812Z,-2.00
2022-12-03T05:57:27.625Z,-2.05
2022-12-03T05:59:29.318Z,-2.36
2022-12-03T06:01:31.293Z,-2.35
2022-12-03T06:03:33.187Z,-2.26
2022-12-03T06:05:35.107Z,-2.14
2022-12-03T06:07:37.080Z,-2.13
2022-12-03T06:09:38.882Z,-2.10
2022-12-03T06:11:40.595Z,-2.09
2022-12-03T06:13:42.560Z,-1.97
2022-12-03T06:15:44.411Z,-2.06
2022-12-03T06:17:46.342Z,-1.93
2022-12-03T06:19:48.124Z,-2.02
2022-12-03T06:21:49.881Z,-2.07
2022-12-03T06:23:51.596Z,-2.06
2022-12-03T06:25:53.392Z,-2.07
2022-12-03T06:27:55.278Z,-2.23
2022-12-03T06:29:57.291Z,-2.38
2022-12-03T06:31:59.203Z,-2.21
2022-12-03T06:34:00.957Z,-2.26
2022-12-03T06:36:02.674Z,-2.15
2022-12-03T06:38:04.520Z,-2.29
2022-12-03T06:40:07.134Z,-2.25
2022-12-03T06:42:08.886Z,-2.11
2022-12-03T06:44:10.756Z,-2.18
2022-12-03T06:46:12.613Z,-2.31
2022-12-03T06:48:14.927Z,-2.29
2022-12-03T06:50:16.877Z,-2.20
2022-12-03T06:52:18.726Z,-2.16
2022-12-03T06:54:20.445Z,-2.16
2022-12-03T06:56:22.688Z,-2.29
2022-12-03T06:58:24.749Z,-2.18
2022-12-03T07:00:26.494Z,-2.24
2022-12-03T07:02:28.535Z,-2.32
2022-12-03T07:04:30.455Z,-2.11
2022-12-03T07:06:32.169Z,-2.20
2022-12-03T07:08:34.393Z,-2.28
2022-12-03T07:10:36.176Z,-2.13
2022-12-03T07:12:37.865Z,-2.08
2022-12-03T07:14:40.108Z,-2.12
2022-12-03T07:16:41.829Z,-2.18
2022-12-03T07:18:43.572Z,-2.17
2022-12-03T07:20:45.459Z,-2.06
2022-12-03T07:22:47.362Z,-1.99
2022-12-03T07:24:49.060Z,-2.23
2022-12-03T07:26:50.917Z,-2.26
2022-12-03T07:28:52.783Z,-2.23
2022-12-03T07:30:54.995Z,-2.25
2022-12-03T07:32:56.892Z,-2.29
2022-12-03T07:34:58.793Z,-2.16
2022-12-03T07:37:00.473Z,-2.14
2022-12-03T07:39:02.414Z,-2.16
2022-12-03T07:41:04.298Z,-2.19
2022-12-03T07:43:06.072Z,-2.14
2022-12-03T07:45:08.706Z,-1.99
2022-12-03T07:47:10.602Z,-1.85
2022-12-03T07:49:12.368Z,-1.95
2022-12-03T07:51:15.508Z,-2.00
2022-12-03T07:53:17.541Z,-1.99
2022-12-03T07:55:19.224Z,-1.79
2022-12-03T07:57:21.078Z,-1.76
2022-12-03T07:59:22.962Z,-1.66
2022-12-03T08:01:24.784Z,-1.78
2022-12-03T08:03:26.690Z,-1.93
2022-12-03T08:05:28.872Z,-2.02
2022-12-03T08:07:30.575Z,-1.89
2022-12-03T08:09:32.338Z,-1.78
2022-12-03T08:11:34.065Z,-1.79
2022-12-03T08:13:35.746Z,-1.69
2022-12-03T08:15:39.667Z,-1.65
2022-12-03T08:17:42.769Z,-1.66
2022-12-03T08:19:47.149Z,-1.72
2022-12-03T08:21:49.117Z,-1.74
2022-12-03T08:23:51.293Z,-1.83
2022-12-03T08:25:53.223Z,-1.93
2022-12-03T08:28:11.065Z,-1.84
2022-12-03T08:30:16.668Z,-1.93
2022-12-03T08:32:18.420Z,-2.04
2022-12-03T08:34:26.525Z,-1.88
2022-12-03T08:36:33.837Z,-1.87
2022-12-03T08:38:35.577Z,-1.98
2022-12-03T08:40:41.650Z,-1.93
2022-12-03T08:42:43.530Z,-1.83
2022-12-03T08:44:45.348Z,-1.87
2022-12-03T08:46:53.234Z,-1.93
2022-12-03T08:48:55.362Z,-2.01
2022-12-03T08:51:21.607Z,-1.92
2022-12-03T08:53:26.494Z,-2.00
2022-12-03T08:55:34.207Z,-2.08
2022-12-03T08:57:36.290Z,-2.11
2022-12-03T08:59:40.309Z,-2.05
2022-12-03T09:01:47.324Z,-2.11
2022-12-03T09:03:54.089Z,-2.16
2022-12-03T09:05:55.936Z,-2.10
2022-12-03T09:07:57.779Z,-1.93
2022-12-03T09:09:59.520Z,-1.92
2022-12-03T09:12:01.336Z,-1.98
2022-12-03T09:14:03.515Z,-1.90
2022-12-03T09:16:05.653Z,-1.92
2022-12-03T09:18:07.465Z,-1.92
2022-12-03T09:20:09.740Z,-1.82
2022-12-03T09:22:11.492Z,-1.82
2022-12-03T09:24:13.385Z,-1.85
2022-12-03T09:26:15.220Z,-1.79
2022-12-03T09:28:16.961Z,-1.91
2022-12-03T09:30:18.936Z,-1.90
2022-12-03T09:32:20.763Z,-1.98
2022-12-03T09:34:22.566Z,-1.83
2022-12-03T09:36:24.496Z,-1.98
2022-12-03T09:38:26.837Z,-1.70
2022-12-03T09:40:29.264Z,-1.72
2022-12-03T09:42:31.065Z,-1.55
2022-12-03T09:44:34.634Z,-1.38
2022-12-03T09:46:37.698Z,-1.25
2022-12-03T09:48:40.469Z,-1.33
2022-12-03T09:50:42.814Z,-1.06
2022-12-03T09:52:44.669Z,-1.21
2022-12-03T09:54:47.662Z,-0.90
2022-12-03T09:56:49.692Z,-0.91
2022-12-03T09:58:51.559Z,-0.67
2022-12-03T10:00:53.534Z,-0.50
2022-12-03T10:02:59.279Z,-0.50
2022-12-03T10:05:01.073Z,-0.56
2022-12-03T10:07:02.896Z,-0.33
2022-12-03T10:09:04.827Z,-0.21
2022-12-03T10:11:06.550Z,-0.25
2022-12-03T10:13:13.412Z,-0.20
2022-12-03T10:15:17.996Z,-0.35
2022-12-03T10:17:19.857Z,-0.41
2022-12-03T10:19:33.774Z,-0.57
2022-12-03T10:21:36.426Z,-0.66
2022-12-03T10:23:38.134Z,-0.44
2022-12-03T10:25:51.480Z,-0.57
2022-12-03T10:27:59.860Z,-0.71
2022-12-03T10:30:04.208Z,-0.54
2022-12-03T10:32:08.941Z,-0.82
2022-12-03T10:34:11.180Z,-0.74
2022-12-03T10:36:31.029Z,-0.47
2022-12-03T10:38:32.899Z,-0.35
2022-12-03T10:40:37.072Z,-0.29
2022-12-03T10:42:40.782Z,-0.20
2022-12-03T10:44:42.529Z,-0.30
2022-12-03T10:46:45.497Z,-0.61
2022-12-03T10:49:08.344Z,-0.72
2022-12-03T10:51:20.330Z,-0.79
2022-12-03T10:53:26.327Z,-0.79
2022-12-03T10:55:34.294Z,-0.73
2022-12-03T10:57:36.856Z,-0.72
2022-12-03T10:59:41.672Z,-0.73
2022-12-03T11:01:43.505Z,-0.67
2022-12-03T11:03:46.176Z,-0.50
2022-12-03T11:05:48.831Z,-0.56
2022-12-03T11:07:50.634Z,-0.56
2022-12-03T11:09:53.941Z,-0.50
2022-12-03T11:11:56.192Z,-0.42
2022-12-03T11:14:03.529Z,-0.47
2022-12-03T11:16:07.205Z,-0.43
2022-12-03T11:18:09.021Z,-0.30
2022-12-03T11:20:22.859Z,-0.24
2022-12-03T11:22:39.553Z,-0.35
2022-12-03T11:24:41.279Z,-0.47
2022-12-03T11:26:42.918Z,-0.46
2022-12-03T11:28:47.735Z,-0.09
2022-12-03T11:30:49.452Z,-0.03
2022-12-03T11:33:00.684Z,-0.38
2022-12-03T11:35:02.555Z,-0.35
2022-12-03T11:37:10.008Z,-0.19
2022-12-03T11:39:11.770Z,-0.21
2022-12-03T11:41:20.891Z,-0.28
2022-12-03T11:43:54.296Z,-0.19
2022-12-03T11:46:01.031Z,-0.40
2022-12-03T11:48:13.637Z,-0.53
2022-12-03T11:50:18.243Z,-0.49
2022-12-03T11:52:44.318Z,-0.35
2022-12-03T11:54:52.039Z,-0.46
2022-12-03T11:56:54.671Z,-0.29
2022-12-03T11:59:02.773Z,-0.37
2022-12-03T12:01:06.802Z,-0.27
2022-12-03T12:03:33.352Z,-0.14
2022-12-03T12:05:35.545Z,-0.29
2022-12-03T12:07:37.502Z,-0.28
2022-12-03T12:09:50.896Z,-0.40
2022-12-03T12:11:52.785Z,-0.29
2022-12-03T12:13:56.129Z,-0.17
2022-12-03T12:16:02.804Z,-0.15
2022-12-03T12:18:35.175Z,-0.03
2022-12-03T12:20:37.325Z,-0.26
2022-12-03T12:22:39.142Z,-0.36
2022-12-03T12:24:40.785Z,-0.41
2022-12-03T12:26:51.018Z,-0.48
2022-12-03T12:28:52.735Z,-0.30
2022-12-03T12:30:54.465Z,-0.22
2022-12-03T12:33:23.338Z,-0.30
2022-12-03T12:35:27.367Z,-0.40
2022-12-03T12:37:56.803Z,-0.35
2022-12-03T12:40:06.743Z,-0.38
2022-12-03T12:42:28.197Z,-0.46
2022-12-03T12:44:29.879Z,-0.33
2022-12-03T12:46:48.311Z,-0.22
2022-12-03T12:48:50.420Z,-0.34
2022-12-03T12:51:00.215Z,-0.37
2022-12-03T12:53:11.399Z,-0.36
2022-12-03T12:55:13.130Z,-0.27
2022-12-03T12:57:21.580Z,-0.14
2022-12-03T12:59:23.498Z,-0.04
2022-12-03T13:01:30.655Z,-0.12
2022-12-03T13:03:34.725Z,-0.04
2022-12-03T13:05:42.276Z,-0.06
2022-12-03T13:07:45.069Z,-0.13
2022-12-03T13:09:46.846Z,0.02
2022-12-03T13:11:58.613Z,0.05
2022-12-03T13:14:10.578Z,-0.05
2022-12-03T13:16:19.292Z,-0.09
2022-12-03T13:18:27.417Z,-0.30
2022-12-03T13:20:33.364Z,-0.44
2022-12-03T13:22:35.102Z,-0.35
2022-12-03T13:24:43.356Z,-0.31
2022-12-03T13:26:45.238Z,-0.32
2022-12-03T13:28:46.961Z,-0.56
2022-12-03T13:30:48.896Z,-0.46
2022-12-03T13:32:50.782Z,-0.55
2022-12-03T13:34:52.532Z,-0.45
2022-12-03T13:36:58.483Z,-0.41
2022-12-03T13:39:00.929Z,-0.29
2022-12-03T13:41:03.439Z,-0.23
2022-12-03T13:43:15.339Z,-0.40
2022-12-03T13:45:17.214Z,-0.38
2022-12-03T13:47:21.270Z,-0.46
2022-12-03T13:49:24.563Z,-0.46
2022-12-03T13:51:29.854Z,-0.54
2022-12-03T13:53:38.779Z,-0.46
2022-12-03T13:55:45.618Z,-0.54
2022-12-03T13:57:47.407Z,-0.60
2022-12-03T13:59:49.157Z,-0.54
2022-12-03T14:01:51.043Z,-0.44
2022-12-03T14:03:53.010Z,-0.50
2022-12-03T14:05:54.740Z,-0.34
2022-12-03T14:07:56.719Z,-0.53
2022-12-03T14:09:58.703Z,-0.44
2022-12-03T14:12:00.450Z,-0.44
2022-12-03T14:14:02.315Z,-0.25
2022-12-03T14:16:04.259Z,-0.23
2022-12-03T14:18:06.129Z,-0.19
2022-12-03T14:20:08.401Z,-0.36
2022-12-03T14:22:10.336Z,-0.40
2022-12-03T14:24:12.076Z,-0.43
2022-12-03T14:26:14.153Z,-0.47
2022-12-03T14:28:15.905Z,-0.32
2022-12-03T14:30:17.685Z,-0.69
2022-12-03T14:32:19.520Z,-0.46
2022-12-03T14:34:21.706Z,-0.51
2022-12-03T14:36:23.446Z,-0.34
2022-12-03T14:38:25.441Z,-0.45
2022-12-03T14:40:27.335Z,-0.44
2022-12-03T14:42:29.105Z,-0.37
2022-12-03T14:44:30.996Z,-0.38
2022-12-03T14:46:32.882Z,-0.19
2022-12-03T14:48:34.633Z,-0.20
2022-12-03T14:50:36.830Z,-0.19
2022-12-03T14:52:38.589Z,-0.16
2022-12-03T14:54:41.323Z,-0.19
2022-12-03T14:56:43.106Z,-0.18
2022-12-03T14:58:44.954Z,-0.32
2022-12-03T15:00:46.632Z,-0.29
2022-12-03T15:02:48.644Z,-0.39
2022-12-03T15:04:50.607Z,-0.45
2022-12-03T15:06:52.366Z,-0.44
2022-12-03T15:08:54.189Z,-0.26
2022-12-03T15:10:56.327Z,-0.23
2022-12-03T15:12:58.043Z,-0.22
2022-12-03T15:15:00.528Z,-0.42
2022-12-03T15:17:02.318Z,-0.42
2022-12-03T15:19:04.127Z,-0.29
2022-12-03T15:21:07.481Z,-0.29
2022-12-03T15:23:14.036Z,-0.27
2022-12-03T15:25:16.300Z,-0.30
2022-12-03T15:27:18.104Z,-0.33
2022-12-03T15:29:21.019Z,-0.43
2022-12-03T15:31:22.831Z,-0.51
2022-12-03T15:33:24.591Z,-0.42
2022-12-03T15:35:26.368Z,-0.51
2022-12-03T15:37:28.081Z,-0.37
2022-12-03T15:39:29.884Z,-0.31
2022-12-03T15:41:31.841Z,-0.23
2022-12-03T15:43:33.553Z,-0.25
2022-12-03T15:45:36.055Z,-0.39
2022-12-03T15:47:37.816Z,-0.38
2022-12-03T15:49:39.511Z,-0.51
2022-12-03T15:51:41.414Z,-0.42
2022-12-03T15:53:43.200Z,-0.35
2022-12-03T15:55:44.900Z,-0.31
2022-12-03T15:57:46.838Z,-0.33
2022-12-03T15:59:49.199Z,-0.50
2022-12-03T16:01:50.928Z,-0.44
2022-12-03T16:03:52.768Z,-0.33
2022-12-03T16:05:54.785Z,-0.35
2022-12-03T16:07:56.624Z,-0.27
2022-12-03T16:09:58.398Z,-0.15
2022-12-03T16:12:00.192Z,-0.02
2022-12-03T16:14:01.907Z,-0.24
2022-12-03T16:16:03.851Z,-0.16
2022-12-03T16:18:05.874Z,-0.11
2022-12-03T16:20:08.405Z,-0.14
2022-12-03T16:22:10.629Z,0.00
2022-12-03T16:24:12.397Z,0.02
2022-12-03T16:26:14.125Z,-0.09
2022-12-03T16:28:16.144Z,-0.17
2022-12-03T16:30:17.999Z,-0.28
2022-12-03T16:32:19.729Z,-0.20
2022-12-03T16:34:21.634Z,-0.17
2022-12-03T16:36:23.587Z,-0.16
2022-12-03T16:38:25.298Z,-0.10
2022-12-03T16:40:27.165Z,-0.05
2022-12-03T16:42:29.152Z,-0.04
2022-12-03T16:44:31.137Z,-0.05
2022-12-03T16:46:32.993Z,-0.04
2022-12-03T16:48:34.776Z,-0.07
2022-12-03T16:50:36.502Z,-0.16
2022-12-03T16:52:38.470Z,-0.17
2022-12-03T16:54:40.237Z,-0.14
2022-12-03T16:56:41.977Z,-0.07
2022-12-03T16:58:44.257Z,-0.03
2022-12-03T17:00:46.025Z,0.05
2022-12-03T17:02:47.971Z,0.00
2022-12-03T17:04:49.906Z,0.00
2022-12-03T17:06:51.739Z,-0.07
2022-12-03T17:08:53.423Z,0.12
2022-12-03T17:10:55.336Z,0.17
2022-12-03T17:13:12.450Z,0.14
2022-12-03T17:15:14.250Z,0.11
2022-12-03T17:17:16.039Z,0.07
2022-12-03T17:19:17.941Z,0.16
2022-12-03T17:21:19.691Z,0.15
2022-12-03T17:23:21.635Z,0.15
2022-12-03T17:25:23.615Z,0.33
2022-12-03T17:27:25.340Z,0.53
2022-12-03T17:29:27.251Z,0.60
2022-12-03T17:31:29.155Z,0.52
2022-12-03T17:33:30.914Z,0.35
2022-12-03T17:35:32.797Z,0.53
2022-12-03T17:37:34.560Z,0.42
2022-12-03T17:39:36.284Z,0.47
2022-12-03T17:41:38.130Z,0.46
2022-12-03T17:43:40.196Z,0.48
2022-12-03T17:45:41.899Z,0.39
2022-12-03T17:47:43.744Z,0.25
2022-12-03T17:49:45.549Z,0.26
2022-12-03T17:51:47.290Z,0.24
2022-12-03T17:53:49.053Z,0.26
2022-12-03T17:55:50.857Z,0.16
2022-12-03T17:57:52.541Z,0.40
2022-12-03T17:59:54.407Z,0.39
2022-12-03T18:01:56.315Z,0.30
2022-12-03T18:03:58.119Z,0.37
2022-12-03T18:06:00.160Z,0.30
2022-12-03T18:08:02.009Z,0.30
2022-12-03T18:10:04.139Z,0.38
2022-12-03T18:12:06.292Z,0.46
2022-12-03T18:14:08.032Z,0.32
2022-12-03T18:16:09.823Z,0.31
2022-12-03T18:18:11.848Z,0.39
2022-12-03T18:20:13.825Z,0.45
2022-12-03T18:22:16.517Z,0.41
2022-12-03T18:24:18.325Z,0.41
2022-12-03T18:26:20.316Z,0.41
2022-12-03T18:28:22.074Z,0.45
2022-12-03T18:30:24.265Z,0.49
2022-12-03T18:32:29.488Z,0.57
2022-12-03T18:34:31.676Z,0.59
2022-12-03T18:36:36.007Z,0.68
2022-12-03T18:38:37.984Z,0.46
2022-12-03T18:40:40.377Z,0.52
2022-12-03T18:42:42.160Z,0.64
2022-12-03T18:44:49.452Z,0.61
2022-12-03T18:46:53.999Z,0.59
2022-12-03T18:48:56.542Z,0.47
2022-12-03T18:50:58.223Z,0.52
2022-12-03T18:52:59.997Z,0.49
2022-12-03T18:55:01.935Z,0.53
2022-12-03T18:57:03.828Z,0.38
2022-12-03T18:59:05.595Z,0.31
2022-12-03T19:01:07.725Z,0.28
2022-12-03T19:03:10.289Z,0.26
2022-12-03T19:05:12.123Z,0.21
2022-12-03T19:07:14.436Z,0.22
2022-12-03T19:09:16.575Z,0.15
2022-12-03T19:11:18.414Z,0.22
2022-12-03T19:13:20.177Z,0.20
2022-12-03T19:15:21.869Z,0.36
2022-12-03T19:17:23.728Z,0.32
2022-12-03T19:19:25.604Z,0.33
2022-12-03T19:21:32.166Z,0.32
2022-12-03T19:23:36.435Z,0.47
2022-12-03T19:25:38.216Z,0.34
2022-12-03T19:27:39.963Z,0.46
2022-12-03T19:29:42.006Z,0.51
2022-12-03T19:31:43.768Z,0.45
2022-12-03T19:33:45.641Z,0.60
2022-12-03T19:35:47.389Z,0.66
2022-12-03T19:37:50.007Z,0.65
2022-12-03T19:39:54.967Z,0.73
2022-12-03T19:41:56.972Z,0.66
2022-12-03T19:43:59.056Z,0.77
2022-12-03T19:46:05.218Z,0.62
2022-12-03T19:48:07.187Z,0.56
2022-12-03T19:50:09.664Z,0.73
2022-12-03T19:52:11.403Z,0.71
2022-12-03T19:54:13.601Z,0.71
2022-12-03T19:56:18.117Z,0.70
2022-12-03T19:58:19.879Z,0.70
2022-12-03T20:00:21.780Z,0.60
2022-12-03T20:02:23.781Z,0.72
2022-12-03T20:04:25.568Z,0.74
2022-12-03T20:06:31.475Z,0.76
2022-12-03T20:08:33.376Z,0.79
2022-12-03T20:10:35.724Z,0.68
2022-12-03T20:12:37.605Z,0.67
2022-12-03T20:14:39.429Z,0.56
2022-12-03T20:16:41.606Z,0.62
2022-12-03T20:18:45.481Z,0.78
2022-12-03T20:20:47.229Z,0.72
2022-12-03T20:22:48.972Z,0.72
2022-12-03T20:24:50.791Z,0.74
2022-12-03T20:26:52.727Z,0.82
2022-12-03T20:28:55.145Z,0.70
2022-12-03T20:30:58.867Z,0.86
2022-12-03T20:33:00.898Z,0.81
2022-12-03T20:35:02.613Z,0.83
2022-12-03T20:37:04.639Z,0.69
2022-12-03T20:39:07.708Z,0.74
2022-12-03T20:41:17.550Z,0.73
2022-12-03T20:43:19.472Z,0.66
2022-12-03T20:45:21.285Z,0.79
2022-12-03T20:47:23.153Z,0.86
2022-12-03T20:49:24.866Z,0.90
2022-12-03T20:51:29.187Z,0.50
2022-12-03T20:53:30.971Z,0.69
2022-12-03T20:55:33.378Z,0.79
2022-12-03T20:57:35.059Z,0.64
2022-12-03T20:59:36.897Z,0.72
2022-12-03T21:01:39.181Z,0.75
2022-12-03T21:03:41.087Z,0.87
2022-12-03T21:05:42.984Z,0.98
2022-12-03T21:07:45.073Z,0.75
2022-12-03T21:09:46.927Z,0.92
2022-12-03T21:11:48.734Z,0.86
2022-12-03T21:13:51.001Z,0.83
2022-12-03T21:16:06.649Z,0.78
2022-12-03T21:18:09.921Z,0.75
2022-12-03T21:20:14.533Z,0.94
2022-12-03T21:22:18.427Z,0.81
2022-12-03T21:24:20.251Z,0.79
2022-12-03T21:26:22.288Z,0.82
2022-12-03T21:28:24.185Z,0.94
2022-12-03T21:30:26.026Z,0.82
2022-12-03T21:32:27.732Z,0.90
2022-12-03T21:34:35.948Z,1.07
2022-12-03T21:36:38.284Z,0.92
2022-12-03T21:38:40.530Z,0.94
2022-12-03T21:40:42.370Z,0.84
2022-12-03T21:42:44.203Z,0.84
2022-12-03T21:44:46.928Z,0.94
2022-12-03T21:47:09.264Z,0.90
2022-12-03T21:49:10.480Z,0.79
2022-12-03T21:51:14.358Z,0.88
2022-12-03T21:53:16.278Z,0.84
2022-12-03T21:55:18.253Z,0.84
2022-12-03T21:57:20.008Z,0.89
2022-12-03T21:59:21.966Z,0.98
2022-12-03T22:01:24.693Z,1.09
2022-12-03T22:03:26.513Z,1.13
2022-12-03T22:05:28.338Z,1.06
2022-12-03T22:07:33.430Z,1.02
2022-12-03T22:09:35.346Z,1.06
2022-12-03T22:11:37.181Z,0.96
2022-12-03T22:13:39.609Z,1.06
2022-12-03T22:15:41.320Z,1.11
2022-12-03T22:17:43.092Z,1.05
2022-12-03T22:19:44.840Z,1.02
2022-12-03T22:21:46.516Z,1.01
2022-12-03T22:23:48.329Z,1.15
2022-12-03T22:26:01.079Z,1.05
2022-12-03T22:28:02.819Z,1.14
2022-12-03T22:30:06.205Z,1.09
2022-12-03T22:32:07.984Z,1.15
2022-12-03T22:34:09.744Z,1.12
2022-12-03T22:36:19.646Z,1.07
2022-12-03T22:38:22.557Z,1.00
2022-12-03T22:40:24.260Z,1.00
2022-12-03T22:42:26.057Z,1.00
2022-12-03T22:44:27.982Z,0.99
2022-12-03T22:46:29.714Z,0.99
2022-12-03T22:48:34.175Z,1.01
2022-12-03T22:50:42.461Z,1.07
2022-12-03T22:52:44.177Z,1.13
2022-12-03T22:54:46.065Z,1.06
2022-12-03T22:56:47.904Z,1.13
2022-12-03T22:58:49.821Z,1.12
2022-12-03T23:00:52.932Z,1.19
2022-12-03T23:02:54.953Z,1.01
2022-12-03T23:04:56.662Z,1.00
2022-12-03T23:06:58.473Z,0.94
2022-12-03T23:09:00.303Z,1.04
2022-12-03T23:11:02.000Z,1.07
2022-12-03T23:13:05.927Z,1.00
2022-12-03T23:15:08.580Z,1.02
2022-12-03T23:17:10.266Z,0.90
2022-12-03T23:19:12.215Z,0.96
2022-12-03T23:21:28.903Z,1.01
2022-12-03T23:23:30.918Z,0.97
2022-12-03T23:25:32.626Z,1.12
2022-12-03T23:27:34.479Z,0.95
2022-12-03T23:29:36.187Z,0.95
2022-12-03T23:31:37.985Z,1.10
2022-12-03T23:33:39.776Z,1.17
2022-12-03T23:35:41.497Z,1.14
2022-12-03T23:37:43.668Z,1.19
2022-12-03T23:39:48.064Z,1.11
2022-12-03T23:41:53.604Z,1.18
2022-12-03T23:43:56.303Z,1.12
2022-12-03T23:46:06.559Z,1.17
2022-12-03T23:48:08.282Z,1.18
2022-12-03T23:50:10.576Z,1.09
2022-12-03T23:52:12.321Z,1.15
2022-12-03T23:54:14.023Z,1.12
2022-12-03T23:56:18.805Z,1.07
2022-12-03T23:58:20.757Z,1.11
